createdAt,value
2022-12-31T10:32:15.509Z,72.36
2022-12-31T10:34:53.149Z,71.77
2022-12-31T10:37:21.913Z,71.49
2022-12-31T10:39:54.468Z,70.82
2022-12-31T10:42:46.294Z,71.88
2022-12-31T10:45:46.914Z,72.41
2022-12-31T10:48:38.193Z,72.71
2022-12-31T10:51:44.927Z,74.06
2022-12-31T10:58:13.218Z,72.49
2022-12-31T11:00:41.304Z,71.87
2022-12-31T11:03:43.443Z,71.96
2022-12-31T11:06:43.145Z,72.25
2022-12-31T11:09:34.919Z,72.58
2022-12-31T11:12:05.478Z,72.81
2022-12-31T11:14:50.630Z,73.54
2022-12-31T11:17:40.998Z,71.74
2022-12-31T11:20:34.336Z,72.13
2022-12-31T11:23:09.519Z,75.33
2022-12-31T11:25:44.761Z,75.03
2022-12-31T11:28:40.476Z,72.07
2022-12-31T11:31:13.475Z,71.94
2022-12-31T11:33:50.531Z,72.26
2022-12-31T11:36:22.974Z,72.64
2022-12-31T11:38:51.423Z,71.99
2022-12-31T11:41:25.637Z,74.50
2022-12-31T11:43:57.032Z,72.64
2022-12-31T11:46:47.640Z,72.34
2022-12-31T11:49:42.684Z,73.86
2022-12-31T11:52:43.023Z,73.39
2022-12-31T11:55:44.589Z,72.55
2022-12-31T11:58:15.016Z,71.44
2022-12-31T12:00:46.223Z,72.60
2022-12-31T12:03:13.717Z,71.59
2022-12-31T12:05:41.124Z,71.40
2022-12-31T12:08:08.707Z,71.13
2022-12-31T12:10:40.456Z,70.68
2022-12-31T12:13:19.919Z,70.37
2022-12-31T12:15:53.028Z,70.60
2022-12-31T12:18:34.019Z,69.86
2022-12-31T12:21:06.361Z,69.74
2022-12-31T12:23:34.038Z,68.96
2022-12-31T12:26:04.751Z,68.44
2022-12-31T12:28:51.993Z,68.50
2022-12-31T12:31:20.807Z,68.19
2022-12-31T12:33:48.490Z,69.30
2022-12-31T12:36:16.796Z,68.51
2022-12-31T12:38:44.357Z,68.69
2022-12-31T12:41:12.871Z,67.78
2022-12-31T12:43:42.148Z,68.24
2022-12-31T12:46:19.359Z,67.74
2022-12-31T12:48:55.165Z,68.17
2022-12-31T12:51:42.411Z,68.77
2022-12-31T12:54:16.038Z,67.93
2022-12-31T12:56:47.126Z,69.20
2022-12-31T12:59:48.296Z,68.06
2022-12-31T13:02:25.273Z,67.37
2022-12-31T13:05:04.430Z,67.19
2022-12-31T13:07:38.818Z,66.93
2022-12-31T13:10:15.073Z,66.75
2022-12-31T13:13:22.064Z,67.36
2022-12-31T13:15:36.875Z,67.02
2022-12-31T13:18:08.278Z,66.34
2022-12-31T13:20:37.489Z,66.23
2022-12-31T13:23:07.804Z,65.29
2022-12-31T13:25:39.072Z,64.78
2022-12-31T13:28:10.201Z,64.88
2022-12-31T13:30:41.082Z,65.09
2022-12-31T13:33:15.776Z,65.23
2022-12-31T13:35:46.084Z,66.33
2022-12-31T13:38:15.476Z,66.95
2022-12-31T13:40:46.842Z,68.05
2022-12-31T13:43:16.936Z,67.57
2022-12-31T13:45:46.206Z,67.05
2022-12-31T13:48:14.762Z,67.35
2022-12-31T13:50:44.930Z,68.36
2022-12-31T13:53:15.838Z,67.59
2022-12-31T13:55:45.138Z,67.78
2022-12-31T13:58:17.571Z,68.69
2022-12-31T14:00:47.783Z,68.19
2022-12-31T14:03:18.838Z,68.33
2022-12-31T14:05:49.072Z,68.50
2022-12-31T14:08:16.544Z,68.97
2022-12-31T14:10:50.955Z,68.92
2022-12-31T14:13:40.732Z,69.14
2022-12-31T14:16:18.612Z,69.84
2022-12-31T14:18:48.118Z,70.11
2022-12-31T14:21:20.906Z,69.91
